Saltillo, PA (17253)

1:48 PM EDT on September 02, 2014 (GMT -0400)
KPATHREE2 | Change Station
CLOSE
Current Station
Personal Weather Station
Location: Three Springs, PA
Elevation: 800 ft
Nearby Weather Stations

Elev 800 ft 40.21 °N, 77.96 °W | Updated 7 minutes ago

Mostly Cloudy
Mostly Cloudy
73.5 °F
Feels Like 74 °F
N
-
Wind Variable Wind from North

Today
High -- | Low -- °F
--% Chance of Precip.
Yesterday
High -- | Low -- °F
Precip. -- in
6:40 AM 7:42 PM
First Quarter, 53% visible
Pressure 29.95 in
Visibility 10.0 miles
Clouds Few 3700 ft
Mostly Cloudy 4900 ft
Overcast 6500 ft
Heat Index 74 °F
Dew Point 67 °F
Humidity 80%
Rainfall -999.00 in
Snow Depth Not available.
UV 3 out of 12
Pollen 8.80 out of 12
Air Quality Not available.
Flu Activity Not available.
METAR KAOO 021653Z AUTO 24003KT 10SM FEW037 BKN049 OVC065 26/20 A2999 RMK AO2 SLP142 T02610200

More Conditions Fewer Conditions

Pressure 29.95 in
Visibility 10.0 miles
Clouds Few 3700 ft
Mostly Cloudy 4900 ft
Overcast 6500 ft
Heat Index 74 °F
Dew Point 67 °F
Humidity 80%
Rainfall -999.00 in
Snow Depth Not available.
UV 3 out of 12
Pollen 8.80 out of 12
Air Quality Not available.
Flu Activity Not available.
METAR KAOO 021653Z AUTO 24003KT 10SM FEW037 BKN049 OVC065 26/20 A2999 RMK AO2 SLP142 T02610200

More Conditions Fewer Conditions

10-Day Weather Forecast

Almanac

Astronomy

Sep. 02, 2014 Rise Set
Actual Time 6:40 AM EDT 7:42 PM EDT
Civil Twilight 6:12 AM EDT 8:09 PM EDT
Nautical Twilight 5:39 AM EDT 8:42 PM EDT
Astronomical Twilight 5:04 AM EDT 9:17 PM EDT
Moon 2:23 PM EDT No Moon Set
Length of Visible Light 13h 57m
Length of Day
13h 01m
Tomorrow will be 2m 33s shorter.
First Quarter, 53% of the Moon is Illuminated
Today
First Quarter
Sep 8
Full
Sep 15
Last Quarter
Sep 24
New
Oct 1
First Quarter

Today's Extremes

State Highs State Lows

Community

WunderPhotos

Upload Photos

1,749,724 photos uploaded!

WunderBlogs® & News

Nearby

Snow Depth

Station Depth Elevation
No new snow has been reported.

Earthquake Activity

City Distance Mag. Time & Date
No recent earthquake activity has been reported nearby.
Minimum magnitude displayed is 2.5.

Coastal Water Temperatures

Place Temperature
No Stations Reporting

Nearby Weather Stations